תחנות METAR סמוכות

 

LLBG - Ben-Gurion(Civ/M, Israel
Distance from station: 'מ 83km
עודכן: 27/01/2020 08:50
Few Clouds
Few Clouds
 רוח מ משתנה
רוח: משתנה 4 km/h
טמפרטורה: 12°C
נקודת הטל: 7°C
לחות: 72%
ברומטר: 1026 hPa
עננים: Few Clouds
ראות: 10 km
Cloud details: Few Clouds 1219 m
2020/01/27 06:50 LLBG 270650Z VRB02KT 9999 FEW040 12/07 Q1026 NOSIG
LLSD - Sde Dov Airport, Israel
Distance from station: 'מ 75km
עודכן: 30/06/2019 23:50
לא מעודכן
מעונן חלקית
מעונן חלקית
 רוח מ משתנה
רוח: משתנה 6 km/h
טמפרטורה: 27°C
עומס חום: 30°C
נקודת הטל: 23°C
לחות: 79%
ברומטר: 1007 hPa
עננים: מעונן חלקית
ראות: 10 km
Cloud details: מעונן חלקית 518 m
2019/06/30 20:50 LLSD 302050Z VRB03KT 9999 SCT017 27/23 Q1007
 
LLHA - Haifa (isr-Afb), Israel
Distance from station: 'צמ 129km
עודכן: 27/01/2020 08:50
בעיקר מעונן
בעיקר מעונן
 רוח מ 'דדמ
רוח: 'דדמ 9 km/h
טמפרטורה: 12°C
נקודת הטל: 7°C
לחות: 72%
ברומטר: 1026 hPa
עננים: בעיקר מעונן
ראות: 10 km
Cloud details: בעיקר מעונן 1219 m
2020/01/27 06:50 LLHA 270650Z 15005KT 9999 BKN040 12/07 Q1026
LLIB - Ben Ya Akov, Israel
Distance from station: 'צמ 183km
עודכן: 27/01/2020 08:50
בהיר
בהיר
 רוח מ משתנה
רוח: משתנה 2 km/h
טמפרטורה: 9°C
נקודת הטל: 6°C
לחות: 82%
ברומטר: 1026 hPa
סיכום: בהיר
ראות: greater than 10 km
2020/01/27 06:50 LLIB 270650Z VRB01KT CAVOK 09/06 Q1026
 
LLOV - Ovda (isr-Afb/Ci, Israel
Distance from station: 'דדמ 246km
עודכן: 31/03/2019 22:50
לא מעודכן
בהיר
בהיר
 רוח מ 'מדמ
רוח: 'מדמ 13 km/h
טמפרטורה: 12°C
נקודת הטל: 0°C
לחות: 44%
ברומטר: 1012 hPa
סיכום: בהיר
ראות: greater than 10 km
2019/03/31 19:50 LLOV 311950Z 24007KT CAVOK 12/00 Q1012
LLET - Elat/J. Hozman(A, Israel
Distance from station: 'דדמ 287km
עודכן: 18/03/2019 17:50
לא מעודכן
בהיר
בהיר
 רוח מ 'צצמ
רוח: 'צצמ 30 km/h
טמפרטורה: 24°C
נקודת הטל: -1°C
לחות: 19%
ברומטר: 1016 hPa
סיכום: בהיר
ראות: greater than 10 km
2019/03/18 15:50 LLET 181550Z 02016KT CAVOK 24/M01 Q1016
 
LCLK - Larnaca/Larnax A, Cyprus
Distance from station: 'צ 321km
עודכן: 27/01/2020 08:30
Few Clouds
Few Clouds
 רוח מ 'מצמ
רוח: 'מצמ 6 km/h
טמפרטורה: 11°C
נקודת הטל: 9°C
לחות: 88%
ברומטר: 1026 hPa
עננים: Few Clouds
ראות: 10 km
Cloud details: Few Clouds 610 m
2020/01/27 06:30 LCLK 270630Z 30003KT 9999 FEW020 11/09 Q1026 NOSIG